Time;durP1;ratioP1;P1;durP2;ratioP2;P2;SDS_P1;SDS_P2;PMS_P1;PMS_P2;Temp;Humidity;BMP_temperature;BMP_pressure;BME280_temperature;BME280_humidity;BME280_pressure;Samples;Min_cycle;Max_cycle;Signal;HPM_P1;HPM_P2
2022/03/20 00:01:02;;;;;;;7.68;3.97;;;;;;;5.88;58.27;103223.66;5036357;28;20037;-61
2022/03/20 00:03:29;;;;;;;11.13;4.60;;;;;;;5.90;58.34;103227.19;5036287;28;20033;-61
2022/03/20 00:05:54;;;;;;;7.45;4.10;;;;;;;5.90;58.67;103221.97;5036318;28;20044;-61
2022/03/20 00:08:20;;;;;;;10.70;4.70;;;;;;;5.83;58.94;103201.75;5036578;28;20038;-61
2022/03/20 00:10:49;;;;;;;7.95;4.63;;;;;;;5.82;58.68;103204.25;5036374;28;20060;-61
2022/03/20 00:13:18;;;;;;;9.00;4.47;;;;;;;5.79;58.83;103197.22;5036233;28;20072;-61
2022/03/20 00:15:46;;;;;;;10.93;4.88;;;;;;;5.79;58.93;103207.63;5036058;28;20029;-61
2022/03/20 00:18:14;;;;;;;9.35;4.68;;;;;;;5.75;59.34;103203.09;5036235;28;20072;-61
2022/03/20 00:20:54;;;;;;;8.57;4.65;;;;;;;5.65;59.03;103193.13;5035175;28;20386;-61
2022/03/20 00:23:22;;;;;;;8.23;4.75;;;;;;;5.69;59.75;103200.25;5035970;28;20025;-61
2022/03/20 00:25:47;;;;;;;10.45;5.35;;;;;;;5.58;59.98;103191.97;5036240;28;20037;-61
2022/03/20 00:28:15;;;;;;;9.10;5.00;;;;;;;5.58;59.96;103189.34;5035927;28;20107;-61
2022/03/20 00:30:41;;;;;;;11.25;5.35;;;;;;;5.56;60.25;103180.59;5035658;28;20042;-61
2022/03/20 00:33:07;;;;;;;12.65;5.05;;;;;;;5.55;60.26;103175.34;5036024;28;20052;-61
2022/03/20 00:35:33;;;;;;;11.77;5.78;;;;;;;5.48;60.68;103171.59;5035180;28;20040;-61
2022/03/20 00:37:58;;;;;;;10.55;5.65;;;;;;;5.40;60.78;103166.88;5035963;28;20079;-61
2022/03/20 00:40:24;;;;;;;11.48;5.85;;;;;;;5.45;61.08;103161.06;5035476;28;20029;-61
2022/03/20 00:42:49;;;;;;;10.27;5.95;;;;;;;5.35;61.49;103155.41;5035802;28;20052;-61
2022/03/20 00:45:15;;;;;;;10.30;6.03;;;;;;;5.33;61.71;103151.84;5035287;28;20369;-61
2022/03/20 00:47:40;;;;;;;12.05;6.30;;;;;;;5.21;61.77;103141.78;5034950;28;20030;-61
2022/03/20 00:50:06;;;;;;;15.10;6.25;;;;;;;5.19;62.48;103139.16;5035113;28;20061;-61
2022/03/20 00:52:32;;;;;;;11.98;6.40;;;;;;;5.17;62.68;103140.78;5035621;28;20033;-61
2022/03/20 00:54:58;;;;;;;13.35;6.75;;;;;;;5.11;62.62;103139.59;5035462;28;20041;-61
2022/03/20 00:57:23;;;;;;;12.02;6.80;;;;;;;5.06;63.29;103133.31;5035657;28;20044;-61
2022/03/20 00:59:48;;;;;;;13.32;6.93;;;;;;;5.01;63.05;103127.03;5035381;28;20352;-61
2022/03/20 01:02:15;;;;;;;12.68;6.80;;;;;;;5.01;63.64;103135.72;5035607;28;20064;-61
2022/03/20 01:04:40;;;;;;;14.18;6.93;;;;;;;4.92;63.95;103137.88;5034848;28;20039;-61
2022/03/20 01:07:05;;;;;;;12.60;7.35;;;;;;;4.82;64.15;103135.69;5034728;28;20116;-61
2022/03/20 01:09:31;;;;;;;12.60;7.60;;;;;;;4.79;64.10;103118.25;5035312;28;20033;-61
2022/03/20 01:11:58;;;;;;;13.95;7.63;;;;;;;4.75;64.31;103123.22;5035201;28;20388;-61
2022/03/20 01:14:25;;;;;;;12.88;7.60;;;;;;;4.72;64.95;103128.25;5035171;28;20033;-61
2022/03/20 01:16:51;;;;;;;14.10;7.57;;;;;;;4.69;64.81;103122.94;5035109;28;20029;-61
2022/03/20 01:19:16;;;;;;;12.65;7.63;;;;;;;4.59;65.28;103118.13;5034528;28;20032;-61
2022/03/20 01:21:41;;;;;;;11.77;7.60;;;;;;;4.60;65.25;103122.50;5035429;28;20058;-61
2022/03/20 01:24:08;;;;;;;11.52;7.93;;;;;;;4.58;65.09;103124.13;5035189;28;20065;-61
2022/03/20 01:26:34;;;;;;;13.70;8.02;;;;;;;4.50;65.56;103106.50;5035193;28;20352;-61
2022/03/20 01:29:00;;;;;;;14.55;8.32;;;;;;;4.53;65.80;103101.47;5035020;28;20101;-61
2022/03/20 01:31:25;;;;;;;16.00;8.10;;;;;;;4.47;65.73;103100.31;5034467;28;20121;-61
2022/03/20 01:33:50;;;;;;;17.70;9.05;;;;;;;4.44;65.85;103097.56;5034991;28;20025;-62
2022/03/20 01:36:15;;;;;;;18.50;8.35;;;;;;;4.44;65.38;103095.84;5034841;28;20130;-61
2022/03/20 01:38:41;;;;;;;15.10;8.75;;;;;;;4.35;65.76;103086.75;5035221;28;20034;-61
2022/03/20 01:41:06;;;;;;;15.68;9.20;;;;;;;4.37;65.75;103080.81;5034308;28;20029;-61
2022/03/20 01:43:31;;;;;;;16.92;9.55;;;;;;;4.34;66.01;103077.19;5034656;28;20033;-61
2022/03/20 01:45:56;;;;;;;15.90;9.90;;;;;;;4.27;65.85;103070.84;5035082;28;20349;-61
2022/03/20 01:48:22;;;;;;;14.70;9.02;;;;;;;4.32;65.90;103066.78;5034948;28;20025;-61
2022/03/20 01:50:47;;;;;;;19.20;9.73;;;;;;;4.32;65.63;103060.69;5034597;28;20356;-61
2022/03/20 01:53:13;;;;;;;17.08;10.52;;;;;;;4.22;65.90;103061.06;5034545;28;20456;-61
2022/03/20 01:55:38;;;;;;;19.95;11.85;;;;;;;4.19;66.14;103048.84;5034535;28;20041;-61
2022/03/20 01:58:03;;;;;;;21.40;11.65;;;;;;;4.12;65.86;103044.19;5034751;28;20131;-61
2022/03/20 02:00:31;;;;;;;23.65;12.48;;;;;;;4.20;66.39;103058.38;5037140;28;20039;-61
2022/03/20 02:02:57;;;;;;;22.25;12.73;;;;;;;4.20;65.80;103056.69;5038977;28;20116;-61
2022/03/20 02:05:22;;;;;;;21.83;13.05;;;;;;;4.14;66.01;103051.22;5038377;28;20064;-61
2022/03/20 02:07:48;;;;;;;21.17;13.35;;;;;;;4.22;65.62;103055.88;5038501;28;20466;-61
2022/03/20 02:10:15;;;;;;;23.52;14.95;;;;;;;4.24;65.42;103039.59;5038880;28;20041;-61
2022/03/20 02:12:41;;;;;;;24.80;14.85;;;;;;;4.24;64.97;103036.09;5038479;28;20434;-61
2022/03/20 02:15:10;;;;;;;25.23;15.40;;;;;;;4.22;65.11;103025.66;5038643;28;20112;-60
2022/03/20 02:17:36;;;;;;;24.38;14.80;;;;;;;4.19;65.43;103020.34;5038727;28;20037;-61
2022/03/20 02:20:05;;;;;;;23.38;15.45;;;;;;;4.28;64.67;103025.06;5037868;28;20045;-61
2022/03/20 02:22:32;;;;;;;22.67;15.45;;;;;;;4.28;64.70;103025.97;5038268;28;20037;-61
2022/03/20 02:24:58;;;;;;;23.42;15.35;;;;;;;4.25;64.37;103017.16;5038601;28;20064;-61
2022/03/20 02:27:25;;;;;;;28.55;16.63;;;;;;;4.19;64.72;103015.16;5038309;28;20033;-61
2022/03/20 02:29:53;;;;;;;26.85;16.33;;;;;;;4.16;64.30;103013.28;5038313;28;20445;-61
2022/03/20 02:32:23;;;;;;;27.13;16.60;;;;;;;4.18;64.58;103014.25;5038213;28;20037;-61
2022/03/20 02:34:49;;;;;;;27.15;16.67;;;;;;;4.12;64.37;103006.22;5038064;28;20033;-61
2022/03/20 02:37:17;;;;;;;27.13;17.55;;;;;;;4.13;64.53;103005.41;5038079;28;20033;-61
2022/03/20 02:39:43;;;;;;;28.45;17.02;;;;;;;4.14;64.17;102990.75;5038002;28;20083;-61
2022/03/20 02:42:09;;;;;;;28.13;17.67;;;;;;;4.06;64.51;103003.31;5038086;28;20120;-62
2022/03/20 02:45:00;;;;;;;30.83;18.45;;;;;;;4.05;64.39;103005.84;5037998;28;20076;-60
2022/03/20 02:47:39;;;;;;;28.27;18.70;;;;;;;3.99;64.72;102985.69;5038113;28;20032;-61
2022/03/20 02:50:11;;;;;;;31.60;17.25;;;;;;;4.10;63.75;102988.81;5037602;28;20034;-61
2022/03/20 02:52:58;;;;;;;31.85;17.15;;;;;;;4.06;64.16;102985.19;5037944;28;20321;-61
2022/03/20 02:55:42;;;;;;;27.38;17.80;;;;;;;3.93;63.88;102964.72;5037508;28;20021;-61
2022/03/20 02:58:10;;;;;;;29.83;17.98;;;;;;;4.05;63.99;102983.41;5038006;28;20044;-61
2022/03/20 03:00:37;;;;;;;29.60;17.92;;;;;;;4.02;64.08;102979.78;5037731;28;20091;-61
2022/03/20 03:03:04;;;;;;;29.05;19.17;;;;;;;4.04;63.96;102979.03;5037560;28;20069;-60
2022/03/20 03:05:30;;;;;;;28.67;18.25;;;;;;;4.04;64.02;102984.22;5037581;28;20037;-61
2022/03/20 03:10:56;;;;;;;30.23;18.48;;;;;;;3.98;64.11;102980.47;5036883;28;20463;-61
2022/03/20 03:13:24;;;;;;;32.00;18.90;;;;;;;4.01;64.04;102959.88;5037209;28;20341;-61
2022/03/20 03:15:54;;;;;;;29.10;19.33;;;;;;;3.96;64.01;102957.09;5037781;28;20455;-61
2022/03/20 03:18:20;;;;;;;28.33;18.98;;;;;;;3.98;63.64;102954.56;5036699;28;20060;-61
2022/03/20 03:20:47;;;;;;;29.58;19.40;;;;;;;3.99;63.85;102953.72;5037262;28;20057;-61
2022/03/20 03:23:13;;;;;;;33.25;20.15;;;;;;;3.98;63.69;102947.69;5036858;28;20508;-61
2022/03/20 03:25:39;;;;;;;30.92;19.33;;;;;;;3.85;64.51;102950.50;5037134;28;20117;-61
2022/03/20 03:28:05;;;;;;;30.27;19.48;;;;;;;3.85;64.06;102948.78;5037082;28;20057;-61
2022/03/20 03:30:30;;;;;;;34.72;20.17;;;;;;;3.81;64.21;102943.38;5037118;28;20057;-61
2022/03/20 03:32:56;;;;;;;33.45;20.35;;;;;;;3.81;63.89;102928.72;5036956;28;20091;-61
2022/03/20 03:38:05;;;;;;;32.90;20.88;;;;;;;3.71;64.40;102930.81;5037038;28;20469;-61
2022/03/20 03:40:30;;;;;;;32.65;20.98;;;;;;;3.74;64.17;102930.97;5036826;28;20069;-61
2022/03/20 03:42:57;;;;;;;34.42;21.23;;;;;;;3.71;64.68;102926.53;5037111;28;20025;-61
2022/03/20 03:45:24;;;;;;;36.47;22.33;;;;;;;3.72;64.24;102919.66;5036523;28;20044;-61
2022/03/20 03:47:50;;;;;;;37.60;21.88;;;;;;;3.65;64.85;102909.81;5036726;28;20037;-60
2022/03/20 03:50:15;;;;;;;34.10;21.63;;;;;;;3.59;64.41;102899.19;5036572;28;20511;-61
2022/03/20 03:52:41;;;;;;;32.85;21.67;;;;;;;3.56;64.71;102897.31;5036631;28;20033;-61
2022/03/20 03:55:07;;;;;;;34.20;21.05;;;;;;;3.53;65.14;102897.16;5036701;28;20120;-60
2022/03/20 03:57:32;;;;;;;38.03;22.92;;;;;;;3.54;65.00;102900.66;5036766;28;20056;-60
2022/03/20 03:59:58;;;;;;;38.67;22.25;;;;;;;3.43;65.64;102903.63;5036438;28;20048;-62
2022/03/20 04:02:23;;;;;;;35.10;22.98;;;;;;;3.44;65.79;102907.09;5041342;28;20048;-60
2022/03/20 04:04:48;;;;;;;31.58;21.05;;;;;;;3.46;66.04;102897.72;5036605;28;20064;-60
2022/03/20 04:07:18;;;;;;;36.25;22.65;;;;;;;3.30;66.20;102893.47;5036483;28;20029;-61
2022/03/20 04:09:44;;;;;;;37.58;22.85;;;;;;;3.25;66.32;102894.97;5036408;28;20455;-61
2022/03/20 04:12:11;;;;;;;35.95;22.60;;;;;;;3.20;66.73;102885.19;5036539;28;20033;-61
2022/03/20 04:14:36;;;;;;;38.72;22.65;;;;;;;3.14;67.35;102886.66;5036453;28;20083;-61
2022/03/20 04:17:05;;;;;;;37.60;21.92;;;;;;;3.09;67.11;102882.97;5036155;28;20108;-61
2022/03/20 04:19:30;;;;;;;34.97;20.80;;;;;;;3.06;67.62;102869.00;5036259;28;20095;-60
2022/03/20 04:21:55;;;;;;;36.75;22.85;;;;;;;3.01;67.91;102868.75;5036250;28;20417;-64
2022/03/20 04:24:21;;;;;;;38.10;22.42;;;;;;;2.97;68.23;102861.66;5035869;28;20091;-61
2022/03/20 04:26:46;;;;;;;35.55;21.90;;;;;;;2.88;68.53;102850.84;5035728;28;20034;-61
2022/03/20 04:29:12;;;;;;;35.42;22.67;;;;;;;2.86;68.40;102847.31;5036076;28;20029;-60
2022/03/20 04:31:37;;;;;;;33.63;22.48;;;;;;;2.85;68.54;102842.94;5036157;28;20352;-61
2022/03/20 04:34:04;;;;;;;35.50;22.77;;;;;;;2.83;68.77;102841.97;5036211;28;20030;-60
2022/03/20 04:36:30;;;;;;;36.72;23.85;;;;;;;2.80;68.46;102836.66;5035494;28;20041;-60
2022/03/20 04:38:57;;;;;;;34.65;22.85;;;;;;;2.77;68.79;102844.28;5035742;28;20163;-60
2022/03/20 04:41:23;;;;;;;37.78;23.48;;;;;;;2.76;68.71;102840.81;5036045;28;20044;-61
2022/03/20 04:43:50;;;;;;;41.47;24.23;;;;;;;2.75;69.09;102841.63;5035368;28;20033;-61
2022/03/20 04:46:16;;;;;;;39.47;22.92;;;;;;;2.65;69.35;102853.97;5035572;28;20057;-61
2022/03/20 04:59:39;;;;;;;39.40;24.08;;;;;;;2.64;69.39;102831.50;5035068;28;20040;-61
2022/03/20 05:02:04;;;;;;;40.17;24.13;;;;;;;2.56;69.27;102809.59;5035290;28;20037;-60
2022/03/20 05:04:29;;;;;;;44.15;23.90;;;;;;;2.44;69.68;102804.66;5035270;28;20540;-61
2022/03/20 05:06:55;;;;;;;39.35;23.52;;;;;;;2.47;69.86;102812.56;5034966;28;20369;-60
2022/03/20 05:14:49;;;;;;;39.65;23.08;;;;;;;2.43;69.67;102806.34;5034939;28;20103;-60
2022/03/20 05:17:14;;;;;;;37.70;24.48;;;;;;;2.39;69.92;102804.44;5034527;28;20025;-61
2022/03/20 05:19:40;;;;;;;39.03;24.23;;;;;;;2.41;70.49;102796.78;5034597;28;20049;-60
2022/03/20 05:22:09;;;;;;;38.75;24.63;;;;;;;2.41;70.07;102810.59;5035057;28;20376;-60
2022/03/20 05:24:35;;;;;;;39.00;23.80;;;;;;;2.32;70.62;102789.44;5035304;28;20116;-60
2022/03/20 05:27:01;;;;;;;38.70;24.05;;;;;;;2.38;70.02;102801.78;5035112;28;20091;-61
2022/03/20 05:29:26;;;;;;;40.63;24.90;;;;;;;2.36;70.44;102799.13;5035158;28;20030;-60
2022/03/20 05:31:53;;;;;;;37.17;22.85;;;;;;;2.44;69.44;102804.66;5034778;28;20333;-60
2022/03/20 05:34:19;;;;;;;41.70;24.00;;;;;;;2.35;69.87;102791.28;5034148;28;20120;-60
2022/03/20 05:36:45;;;;;;;34.97;23.02;;;;;;;2.39;69.77;102801.88;5034759;28;20044;-60
2022/03/20 05:39:10;;;;;;;42.67;25.13;;;;;;;2.28;70.44;102797.81;5034399;28;20033;-60
2022/03/20 05:41:48;;;;;;;38.78;24.73;;;;;;;2.26;70.23;102785.63;5034753;28;20026;-60
2022/03/20 05:44:19;;;;;;;37.63;23.13;;;;;;;2.23;69.80;102778.66;5034608;28;20500;-62
2022/03/20 05:46:46;;;;;;;39.42;23.55;;;;;;;2.24;70.11;102783.00;5034804;28;20108;-61
2022/03/20 05:49:22;;;;;;;34.78;23.00;;;;;;;2.24;70.36;102771.78;5034636;28;20033;-60
2022/03/20 05:51:49;;;;;;;39.83;24.27;;;;;;;2.26;69.83;102770.13;5034810;28;20371;-60
2022/03/20 05:54:15;;;;;;;38.78;23.58;;;;;;;2.25;70.07;102769.25;5034328;28;20512;-60
2022/03/20 05:59:26;;;;;;;34.83;22.65;;;;;;;2.27;69.63;102775.38;5034128;28;20048;-60
2022/03/20 06:01:51;;;;;;;37.80;23.63;;;;;;;2.31;69.33;102768.69;5034839;28;20102;-61
2022/03/20 06:04:22;;;;;;;38.17;23.08;;;;;;;2.36;68.77;102773.28;5034893;28;20055;-61
2022/03/20 06:06:49;;;;;;;40.50;23.27;;;;;;;2.40;68.49;102764.88;5034500;28;20448;-61
2022/03/20 06:09:15;;;;;;;33.88;22.35;;;;;;;2.40;67.86;102756.25;5034454;28;20038;-61
2022/03/20 06:11:41;;;;;;;36.58;23.50;;;;;;;2.57;67.00;102762.25;5034285;28;20029;-61
2022/03/20 06:14:07;;;;;;;34.83;22.08;;;;;;;2.54;67.02;102762.09;5034284;28;20056;-61
2022/03/20 06:16:34;;;;;;;35.90;22.05;;;;;;;2.57;66.59;102763.16;5034434;28;20437;-60
2022/03/20 06:19:00;;;;;;;36.00;22.88;;;;;;;2.65;65.99;102756.66;5034553;28;20071;-60
2022/03/20 06:21:25;;;;;;;37.83;22.48;;;;;;;2.63;65.65;102753.09;5034500;28;20053;-60
2022/03/20 06:23:51;;;;;;;36.08;22.27;;;;;;;2.76;65.58;102744.28;5033895;28;20144;-60
2022/03/20 06:26:19;;;;;;;34.47;20.80;;;;;;;2.80;64.55;102748.75;5034408;28;20075;-60
2022/03/20 06:28:47;;;;;;;35.85;21.55;;;;;;;2.85;64.02;102751.56;5034403;28;20030;-61
2022/03/20 06:31:13;;;;;;;32.33;20.40;;;;;;;2.96;63.64;102752.97;5034468;28;20099;-60
2022/03/20 06:33:39;;;;;;;34.20;21.58;;;;;;;3.04;62.83;102767.16;5034418;28;20034;-60
2022/03/20 06:36:05;;;;;;;35.53;21.13;;;;;;;3.11;62.07;102762.38;5034273;28;20359;-60
2022/03/20 06:38:31;;;;;;;33.95;20.80;;;;;;;3.19;62.38;102754.94;5034082;28;20121;-61
2022/03/20 06:40:57;;;;;;;32.28;20.52;;;;;;;3.25;61.18;102744.00;5034441;28;20033;-60
2022/03/20 06:43:27;;;;;;;34.00;20.10;;;;;;;3.43;60.66;102742.28;5034228;28;20030;-60
2022/03/20 06:45:53;;;;;;;35.58;21.05;;;;;;;3.47;60.29;102728.63;5035024;28;20474;-60
2022/03/20 06:48:19;;;;;;;33.17;21.15;;;;;;;3.52;60.57;102728.84;5037867;28;20033;-61
2022/03/20 06:50:45;;;;;;;33.08;21.45;;;;;;;3.66;59.81;102730.38;5037992;28;20041;-61
2022/03/20 06:53:11;;;;;;;35.15;20.05;;;;;;;3.67;59.63;102733.03;5037674;28;20034;-61
2022/03/20 06:55:37;;;;;;;31.65;20.17;;;;;;;3.78;59.32;102725.75;5037697;28;20044;-60
2022/03/20 06:58:02;;;;;;;30.65;19.67;;;;;;;3.82;59.02;102722.47;5037618;28;20049;-60
2022/03/20 07:00:28;;;;;;;28.88;19.73;;;;;;;3.92;59.03;102724.66;5037409;28;20043;-61
2022/03/20 07:02:54;;;;;;;33.80;21.38;;;;;;;3.93;58.86;102720.38;5037620;28;20044;-61
2022/03/20 07:05:19;;;;;;;34.85;19.85;;;;;;;4.02;58.56;102716.44;5037538;28;20330;-60
2022/03/20 07:07:45;;;;;;;33.35;19.45;;;;;;;4.01;58.24;102708.59;5037449;28;20322;-61
2022/03/20 07:10:13;;;;;;;30.45;19.20;;;;;;;4.09;57.56;102712.44;5037431;28;20341;-57
2022/03/20 07:12:38;;;;;;;29.73;18.83;;;;;;;4.12;57.26;102710.88;5037385;28;20051;-59
2022/03/20 07:15:04;;;;;;;28.40;17.48;;;;;;;4.14;56.80;102698.88;5037356;28;20116;-59
2022/03/20 07:17:30;;;;;;;30.75;19.88;;;;;;;4.19;56.99;102699.91;5037236;28;20033;-59
2022/03/20 07:19:55;;;;;;;33.38;20.00;;;;;;;4.30;55.95;102696.91;5037351;28;20111;-60
2022/03/20 07:22:23;;;;;;;29.85;18.38;;;;;;;4.26;55.91;102674.28;5037096;28;20061;-62
2022/03/20 07:24:49;;;;;;;30.92;19.52;;;;;;;4.33;55.33;102679.75;5037145;28;20059;-60
2022/03/20 07:29:58;;;;;;;30.65;18.85;;;;;;;4.44;54.55;102675.03;5036530;28;20047;-61
2022/03/20 07:32:23;;;;;;;31.15;17.40;;;;;;;4.45;54.31;102669.91;5036835;28;20108;-61
2022/03/20 07:34:49;;;;;;;34.63;19.33;;;;;;;4.46;55.11;102676.00;5036690;28;20079;-61
2022/03/20 07:37:17;;;;;;;34.67;19.65;;;;;;;4.54;54.16;102665.09;5036949;28;20087;-60
2022/03/20 07:39:45;;;;;;;27.50;17.75;;;;;;;4.60;53.30;102679.13;5036828;28;20039;-61
2022/03/20 07:42:11;;;;;;;31.35;19.45;;;;;;;4.53;53.15;102680.56;5036672;28;20472;-61
2022/03/20 07:44:36;;;;;;;29.13;18.63;;;;;;;4.55;52.77;102689.31;5036648;28;20057;-62
2022/03/20 07:47:03;;;;;;;28.73;18.00;;;;;;;4.58;53.39;102673.00;5036504;28;20384;-61
2022/03/20 07:49:29;;;;;;;33.30;20.08;;;;;;;4.58;52.81;102679.06;5037051;28;20060;-61
2022/03/20 07:51:57;;;;;;;30.95;19.33;;;;;;;4.59;52.75;102680.84;5035609;28;20516;-61
2022/03/20 07:54:23;;;;;;;33.03;18.83;;;;;;;4.64;52.57;102681.03;5036645;28;20036;-61
2022/03/20 07:56:49;;;;;;;29.88;18.45;;;;;;;4.73;52.02;102686.56;5036447;28;20438;-61
2022/03/20 07:59:16;;;;;;;30.75;19.70;;;;;;;4.62;52.29;102690.47;5035797;28;20117;-64
2022/03/20 08:01:41;;;;;;;31.25;18.85;;;;;;;4.61;52.98;102684.38;5035885;28;20021;-61
2022/03/20 08:04:06;;;;;;;29.42;18.48;;;;;;;4.62;51.83;102675.78;5035955;28;20044;-61
2022/03/20 08:06:31;;;;;;;28.38;18.27;;;;;;;4.62;52.00;102667.13;5035651;28;20025;-61
2022/03/20 08:08:59;;;;;;;32.13;19.38;;;;;;;4.62;51.72;102664.53;5035922;28;20029;-60
2022/03/20 08:11:25;;;;;;;32.80;18.98;;;;;;;4.61;51.88;102660.16;5035301;28;20425;-61
2022/03/20 08:13:50;;;;;;;29.98;19.33;;;;;;;4.63;51.36;102668.88;5035813;28;20116;-62
2022/03/20 08:16:16;;;;;;;29.77;18.98;;;;;;;4.64;51.96;102668.06;5035557;28;20425;-61
2022/03/20 08:18:44;;;;;;;33.58;18.92;;;;;;;4.62;51.18;102669.72;5033374;28;20037;-59
2022/03/20 08:21:11;;;;;;;29.10;18.90;;;;;;;4.67;51.14;102673.38;5033882;28;20441;-59
2022/03/20 08:23:37;;;;;;;29.45;19.50;;;;;;;4.74;51.25;102657.22;5035677;28;20029;-60
2022/03/20 08:26:02;;;;;;;32.13;19.70;;;;;;;4.77;51.73;102655.66;5035532;28;20064;-60
2022/03/20 08:28:28;;;;;;;29.50;18.13;;;;;;;4.81;52.12;102656.66;5035207;28;20124;-62
2022/03/20 08:30:54;;;;;;;31.13;18.95;;;;;;;4.84;52.14;102651.59;5035449;28;20364;-60
2022/03/20 08:33:19;;;;;;;29.83;18.95;;;;;;;4.84;52.12;102651.59;5035153;28;20433;-61
2022/03/20 08:35:45;;;;;;;32.08;18.90;;;;;;;4.88;52.20;102643.97;5035274;28;20029;-62
2022/03/20 08:38:10;;;;;;;32.10;18.63;;;;;;;4.92;51.82;102650.16;5035384;28;20025;-61
2022/03/20 08:40:36;;;;;;;26.08;18.75;;;;;;;4.89;51.02;102635.34;5035240;28;20038;-61
2022/03/20 08:43:04;;;;;;;27.33;18.42;;;;;;;4.95;51.20;102646.81;5034292;28;20376;-62
2022/03/20 08:45:31;;;;;;;33.17;19.10;;;;;;;4.97;51.49;102653.81;5035129;28;20040;-61
2022/03/20 08:47:57;;;;;;;33.03;18.65;;;;;;;5.00;51.82;102650.47;5052851;28;20045;-61
2022/03/20 08:50:23;;;;;;;31.17;19.20;;;;;;;5.00;50.95;102647.88;5034816;28;20033;-62
2022/03/20 08:52:49;;;;;;;31.75;18.70;;;;;;;5.07;51.11;102652.44;5034740;28;20029;-61
2022/03/20 08:55:16;;;;;;;28.15;18.92;;;;;;;5.04;50.63;102650.63;5032449;28;20441;-61
2022/03/20 08:57:43;;;;;;;30.90;19.38;;;;;;;5.04;51.05;102657.53;5034244;28;20072;-62
2022/03/20 09:00:10;;;;;;;29.77;19.63;;;;;;;5.02;51.02;102654.00;5033816;28;20120;-62
2022/03/20 09:02:36;;;;;;;32.65;19.58;;;;;;;5.01;50.78;102649.66;5024848;28;20484;-61
2022/03/20 09:05:02;;;;;;;29.05;19.30;;;;;;;5.01;50.86;102655.72;5032641;28;20041;-62
2022/03/20 09:07:28;;;;;;;32.63;20.13;;;;;;;5.01;50.55;102653.13;5029918;28;20112;-61
2022/03/20 09:09:53;;;;;;;33.03;19.58;;;;;;;5.07;50.89;102640.38;5032964;28;20179;-61
2022/03/20 09:12:19;;;;;;;30.13;19.65;;;;;;;5.05;51.00;102631.63;5033765;28;20104;-62
2022/03/20 09:14:45;;;;;;;36.15;19.60;;;;;;;5.14;50.57;102625.91;5034486;28;20032;-61
2022/03/20 09:19:55;;;;;;;30.33;18.15;;;;;;;5.84;48.98;102602.47;5034426;28;20063;-61
2022/03/20 09:22:20;;;;;;;30.80;19.63;;;;;;;6.25;48.83;102617.75;5035054;28;20116;-63
2022/03/20 09:24:46;;;;;;;31.65;19.40;;;;;;;6.72;47.93;102607.09;5034231;28;20072;-60
2022/03/20 09:27:11;;;;;;;30.90;19.95;;;;;;;7.08;47.15;102608.19;5034550;28;20125;-60
2022/03/20 09:29:36;;;;;;;30.13;19.50;;;;;;;7.23;46.12;102580.00;5034770;28;20033;-59
2022/03/20 09:32:02;;;;;;;31.48;20.50;;;;;;;7.44;45.04;102584.91;5034641;28;20025;-60
2022/03/20 09:34:27;;;;;;;29.67;19.80;;;;;;;7.60;44.21;102576.66;5033653;28;20068;-60
2022/03/20 09:36:52;;;;;;;32.60;21.15;;;;;;;7.74;44.63;102583.97;5033600;28;20034;-59
2022/03/20 09:39:18;;;;;;;32.30;20.25;;;;;;;7.50;44.04;102571.16;5034535;28;20444;-60
2022/03/20 09:41:46;;;;;;;32.83;21.83;;;;;;;7.60;44.24;102568.84;5034042;28;20037;-60
2022/03/20 09:44:15;;;;;;;32.42;20.65;;;;;;;7.89;44.18;102553.06;5034352;28;20441;-59
2022/03/20 09:46:41;;;;;;;33.03;20.77;;;;;;;8.12;43.78;102559.75;5034500;28;20030;-59
2022/03/20 09:49:07;;;;;;;30.80;20.85;;;;;;;8.25;43.30;102566.13;5034339;28;20037;-60
2022/03/20 09:51:34;;;;;;;31.13;21.08;;;;;;;8.21;43.19;102565.16;5034962;28;20156;-60
2022/03/20 09:53:59;;;;;;;32.83;21.55;;;;;;;8.12;43.52;102570.16;5033376;28;20048;-60
2022/03/20 09:56:25;;;;;;;33.47;20.65;;;;;;;8.15;44.34;102564.13;5034133;28;20053;-63
2022/03/20 09:58:50;;;;;;;32.28;19.90;;;;;;;8.26;44.13;102571.38;5032448;28;20132;-57
2022/03/20 10:01:16;;;;;;;33.33;21.38;;;;;;;8.24;43.01;102572.19;5034163;28;20110;-60
2022/03/20 10:03:42;;;;;;;32.58;21.02;;;;;;;8.11;43.58;102572.75;5034362;28;20027;-59
2022/03/20 10:06:16;;;;;;;32.63;21.85;;;;;;;7.88;43.63;102575.66;5033657;28;20360;-61
2022/03/20 10:09:15;;;;;;;36.47;21.63;;;;;;;7.75;45.45;102564.88;5031367;28;20355;-60
2022/03/20 10:11:48;;;;;;;34.47;22.02;;;;;;;7.59;45.11;102569.69;5024954;28;20461;-61
2022/03/20 10:14:20;;;;;;;33.88;22.23;;;;;;;7.56;45.23;102580.03;5031712;28;20104;-60
2022/03/20 10:16:50;;;;;;;;;;;;;;;7.70;45.91;102577.78;5034554;28;20041;-60
2022/03/20 10:19:26;;;;;;;32.42;20.95;;;;;;;7.57;45.64;102565.28;5034161;28;19913;-60
2022/03/20 10:22:14;;;;;;;37.58;22.50;;;;;;;7.33;46.00;102555.97;5037132;28;20017;-60
2022/03/20 10:24:47;;;;;;;39.72;23.92;;;;;;;7.36;45.79;102567.31;5037698;28;20441;-60
2022/03/20 10:27:13;;;;;;;38.38;24.48;;;;;;;7.31;45.63;102570.66;5038011;28;20029;-61
2022/03/20 10:29:54;;;;;;;38.45;24.27;;;;;;;7.38;46.25;102569.13;5037966;28;20032;-61
2022/03/20 10:32:20;;;;;;;38.15;25.10;;;;;;;7.32;46.10;102567.22;5038139;28;20040;-61
2022/03/20 10:34:51;;;;;;;42.10;25.33;;;;;;;7.36;49.36;102572.50;5038349;28;20355;-61
2022/03/20 10:37:18;;;;;;;41.25;25.80;;;;;;;7.32;51.06;102567.22;5038065;28;20405;-61
2022/03/20 10:39:44;;;;;;;39.45;26.25;;;;;;;7.28;52.16;102596.59;5038109;28;20355;-61
2022/03/20 10:42:14;;;;;;;39.20;25.50;;;;;;;7.15;53.73;102571.06;5037796;28;20037;-61
2022/03/20 10:44:39;;;;;;;38.60;26.42;;;;;;;7.25;54.23;102578.31;5035473;28;20044;-62
2022/03/20 10:47:20;;;;;;;40.95;26.13;;;;;;;7.35;54.15;102576.84;5038401;28;20030;-61
2022/03/20 10:50:00;;;;;;;39.65;26.38;;;;;;;7.49;54.00;102569.38;5037960;28;20022;-61
2022/03/20 10:52:25;;;;;;;41.33;26.42;;;;;;;7.63;54.08;102574.13;5037530;28;20033;-61
2022/03/20 10:54:53;;;;;;;40.67;26.70;;;;;;;7.67;54.20;102583.78;5037743;28;20510;-61
2022/03/20 10:57:19;;;;;;;39.25;26.63;;;;;;;7.63;55.41;102583.66;5037674;28;20029;-61
2022/03/20 10:59:57;;;;;;;41.15;26.88;;;;;;;7.56;55.92;102579.16;5037619;28;20439;-61
2022/03/20 11:02:24;;;;;;;42.28;27.08;;;;;;;7.47;57.36;102599.72;5037596;28;20128;-61
2022/03/20 11:04:50;;;;;;;40.67;27.40;;;;;;;7.32;58.41;102595.84;5037362;28;20044;-61
2022/03/20 11:07:17;;;;;;;43.42;28.48;;;;;;;7.25;59.12;102591.34;5037513;28;20065;-61
2022/03/20 11:09:50;;;;;;;43.28;28.30;;;;;;;7.14;59.50;102594.44;5036589;28;20032;-61
2022/03/20 11:12:26;;;;;;;41.47;27.08;;;;;;;7.05;60.03;102596.81;5037167;28;20037;-60
2022/03/20 11:14:54;;;;;;;41.63;27.95;;;;;;;7.01;61.31;102600.16;5037215;28;20367;-61
2022/03/20 11:17:26;;;;;;;43.75;27.50;;;;;;;7.06;61.30;102599.47;5037008;28;20462;-62
2022/03/20 11:19:57;;;;;;;43.75;28.95;;;;;;;7.13;60.97;102597.88;5037782;28;20388;-60
2022/03/20 11:22:23;;;;;;;42.88;28.23;;;;;;;7.08;61.24;102608.19;5037564;28;20031;-61
2022/03/20 11:24:55;;;;;;;41.97;27.35;;;;;;;7.08;61.22;102592.56;5037242;28;20045;-61
2022/03/20 11:27:27;;;;;;;42.58;28.00;;;;;;;7.12;61.04;102599.59;5036954;28;20040;-61
2022/03/20 11:30:02;;;;;;;46.33;28.17;;;;;;;7.08;61.30;102587.38;5037048;28;20029;-61
2022/03/20 11:32:28;;;;;;;46.22;29.90;;;;;;;7.11;61.81;102589.16;5035735;28;20503;-61
2022/03/20 11:34:55;;;;;;;43.88;28.70;;;;;;;7.27;61.35;102594.00;5036757;28;20053;-61
2022/03/20 11:37:20;;;;;;;43.63;28.42;;;;;;;7.37;61.11;102587.28;5037037;28;20099;-61
2022/03/20 11:40:07;;;;;;;46.35;28.65;;;;;;;7.50;60.48;102587.66;5037153;28;20029;-60
2022/03/20 11:42:32;;;;;;;46.65;28.52;;;;;;;7.72;59.96;102583.03;5036583;28;20040;-61
2022/03/20 11:45:07;;;;;;;41.15;28.60;;;;;;;7.73;59.56;102590.91;5037280;28;20116;-61
2022/03/20 11:47:37;;;;;;;42.15;28.17;;;;;;;7.73;59.83;102596.09;5036960;28;20037;-61
2022/03/20 11:50:23;;;;;;;46.38;28.48;;;;;;;7.73;59.06;102596.09;5036829;28;20029;-61